createdAt,value
2023-02-08T00:00:47.936Z,5.78
2023-02-08T00:03:14.484Z,5.55
2023-02-08T00:05:41.361Z,5.60
2023-02-08T00:08:08.826Z,5.53
2023-02-08T00:10:35.618Z,5.63
2023-02-08T00:13:02.139Z,5.68
2023-02-08T00:15:28.779Z,5.63
2023-02-08T00:17:55.311Z,5.54
2023-02-08T00:20:21.815Z,5.46
2023-02-08T00:22:48.418Z,5.50
2023-02-08T00:25:15.117Z,5.49
2023-02-08T00:27:41.766Z,5.44
2023-02-08T00:30:09.070Z,5.45
2023-02-08T00:32:35.573Z,5.45
2023-02-08T00:35:02.119Z,5.49
2023-02-08T00:37:28.628Z,5.54
2023-02-08T00:39:55.269Z,5.44
2023-02-08T00:42:21.786Z,5.47
2023-02-08T00:44:48.289Z,5.47
2023-02-08T00:47:14.801Z,5.42
2023-02-08T00:49:41.576Z,5.32
2023-02-08T00:52:08.140Z,5.29
2023-02-08T00:54:34.655Z,5.23
2023-02-08T00:57:01.273Z,5.30
2023-02-08T00:59:28.017Z,5.35
2023-02-08T01:01:54.722Z,5.38
2023-02-08T01:04:21.296Z,5.40
2023-02-08T01:06:47.817Z,5.35
2023-02-08T01:09:14.284Z,5.27
2023-02-08T01:11:40.871Z,5.28
2023-02-08T01:14:07.397Z,5.18
2023-02-08T01:16:34.969Z,5.19
2023-02-08T01:19:03.819Z,5.36
2023-02-08T01:21:33.052Z,4.71
2023-02-08T01:24:00.127Z,4.73
2023-02-08T01:26:27.284Z,4.68
2023-02-08T01:28:55.060Z,5.30
2023-02-08T01:31:24.707Z,5.10
2023-02-08T01:33:51.699Z,4.98
2023-02-08T01:36:18.370Z,5.00
2023-02-08T01:38:45.686Z,5.04
2023-02-08T01:41:28.344Z,4.59
2023-02-08T01:44:06.094Z,4.55
2023-02-08T01:46:40.055Z,4.42
2023-02-08T01:49:21.507Z,4.50
2023-02-08T01:52:13.135Z,4.42
2023-02-08T01:54:46.637Z,4.81
2023-02-08T01:57:13.547Z,4.87
2023-02-08T01:59:49.880Z,4.95
2023-02-08T02:02:19.770Z,4.91
2023-02-08T02:04:47.817Z,4.82
2023-02-08T02:07:16.438Z,4.76
2023-02-08T02:09:58.492Z,4.75
2023-02-08T02:12:26.008Z,4.66
2023-02-08T02:14:52.683Z,4.79
2023-02-08T02:17:20.664Z,4.76
2023-02-08T02:20:02.295Z,4.63
2023-02-08T02:22:31.894Z,4.74
2023-02-08T02:25:19.764Z,4.75
2023-02-08T02:28:14.112Z,4.62
2023-02-08T02:30:58.522Z,4.61
2023-02-08T02:33:46.740Z,4.56
2023-02-08T02:36:34.114Z,4.50
2023-02-08T02:39:03.334Z,4.48
2023-02-08T02:42:00.619Z,4.52
2023-02-08T02:44:38.117Z,4.48
2023-02-08T02:47:32.175Z,4.55
2023-02-08T02:50:10.928Z,4.57
2023-02-08T02:52:57.132Z,4.42
2023-02-08T02:55:27.058Z,4.42
2023-02-08T02:57:55.305Z,4.39
2023-02-08T03:00:25.118Z,4.34
2023-02-08T03:02:52.590Z,4.37
2023-02-08T03:05:19.761Z,4.34
2023-02-08T03:07:50.881Z,4.29
2023-02-08T03:11:01.810Z,4.23
2023-02-08T03:14:05.635Z,4.22
2023-02-08T03:16:57.307Z,4.25
2023-02-08T03:19:58.158Z,4.15
2023-02-08T03:22:29.482Z,4.10
2023-02-08T03:25:02.835Z,4.15
2023-02-08T03:28:01.888Z,4.13
2023-02-08T03:30:37.880Z,4.19
2023-02-08T03:33:33.623Z,4.15
2023-02-08T03:36:21.022Z,4.19
2023-02-08T03:38:50.762Z,4.16
2023-02-08T03:41:24.916Z,4.03
2023-02-08T03:43:58.808Z,3.96
2023-02-08T03:46:30.867Z,3.94
2023-02-08T03:49:04.679Z,3.91
2023-02-08T03:51:34.382Z,3.96
2023-02-08T03:54:05.084Z,3.92
2023-02-08T03:56:34.312Z,3.88
2023-02-08T03:59:07.262Z,3.88
2023-02-08T04:01:42.837Z,3.78
2023-02-08T04:04:11.109Z,3.82
2023-02-08T04:06:37.737Z,3.80
2023-02-08T04:09:04.350Z,3.73
2023-02-08T04:11:31.210Z,3.67
2023-02-08T04:13:57.698Z,3.73
2023-02-08T04:16:24.253Z,3.68
2023-02-08T04:18:50.847Z,3.58
2023-02-08T04:21:17.393Z,3.56
2023-02-08T04:23:43.894Z,3.58
2023-02-08T04:26:10.542Z,3.57
2023-02-08T04:28:37.047Z,3.63
2023-02-08T04:31:04.026Z,3.73
2023-02-08T04:33:30.574Z,3.57
2023-02-08T04:35:57.062Z,3.49
2023-02-08T04:38:24.780Z,3.64
2023-02-08T04:40:51.306Z,3.56
2023-02-08T04:43:17.867Z,3.54
2023-02-08T04:45:44.362Z,3.42
2023-02-08T04:48:11.982Z,3.40
2023-02-08T04:50:38.922Z,3.38
2023-02-08T04:53:06.503Z,3.34
2023-02-08T04:55:33.395Z,3.23
2023-02-08T04:58:00.062Z,3.25
2023-02-08T05:00:26.916Z,3.25
2023-02-08T05:02:55.494Z,3.25
2023-02-08T05:05:22.210Z,3.15
2023-02-08T05:07:48.736Z,3.11
2023-02-08T05:10:15.900Z,3.18
2023-02-08T05:12:42.490Z,3.08
2023-02-08T05:15:09.806Z,3.05
2023-02-08T05:17:36.912Z,3.04
2023-02-08T05:20:04.000Z,3.04
2023-02-08T05:22:31.449Z,3.00
2023-02-08T05:24:57.998Z,3.00
2023-02-08T05:27:24.676Z,3.02
2023-02-08T05:29:51.184Z,2.99
2023-02-08T05:32:17.965Z,2.96
2023-02-08T05:34:44.503Z,2.94
2023-02-08T05:37:12.478Z,3.00
2023-02-08T05:39:38.980Z,3.02
2023-02-08T05:42:05.664Z,2.93
2023-02-08T05:44:32.600Z,2.96
2023-02-08T05:46:59.271Z,2.96
2023-02-08T05:49:25.729Z,2.99
2023-02-08T05:51:52.337Z,2.96
2023-02-08T05:54:18.855Z,2.85
2023-02-08T05:56:45.375Z,2.73
2023-02-08T05:59:12.007Z,2.79
2023-02-08T06:01:38.948Z,2.79
2023-02-08T06:04:05.648Z,2.73
2023-02-08T06:06:32.291Z,2.66
2023-02-08T06:08:59.400Z,2.65
2023-02-08T06:11:25.954Z,2.58
2023-02-08T06:13:52.450Z,2.67
2023-02-08T06:16:20.038Z,2.52
2023-02-08T06:18:46.819Z,2.67
2023-02-08T06:21:13.333Z,2.75
2023-02-08T06:23:39.871Z,2.61
2023-02-08T06:26:06.340Z,2.48
2023-02-08T06:28:32.958Z,2.06
2023-02-08T06:30:59.781Z,1.90
2023-02-08T06:33:26.300Z,1.88
2023-02-08T06:35:53.088Z,1.84
2023-02-08T06:38:20.041Z,1.90
2023-02-08T06:40:47.858Z,2.11
2023-02-08T06:43:14.842Z,2.11
2023-02-08T06:45:42.896Z,2.04
2023-02-08T06:48:09.413Z,2.04
2023-02-08T06:50:37.911Z,1.96
2023-02-08T06:53:04.699Z,2.03
2023-02-08T06:55:31.909Z,2.02
2023-02-08T06:57:58.469Z,2.09
2023-02-08T07:00:24.975Z,2.08
2023-02-08T07:02:52.475Z,2.05
2023-02-08T07:05:19.313Z,2.05
2023-02-08T07:07:48.466Z,1.84
2023-02-08T07:10:16.005Z,2.09
2023-02-08T07:12:42.537Z,1.95
2023-02-08T07:15:10.126Z,1.89
2023-02-08T07:17:36.644Z,1.84
2023-02-08T07:20:03.590Z,1.88
2023-02-08T07:22:30.100Z,1.86
2023-02-08T07:24:56.565Z,1.80
2023-02-08T07:27:25.030Z,1.87
2023-02-08T07:29:52.534Z,1.84
2023-02-08T07:32:19.160Z,1.84
2023-02-08T07:34:46.514Z,1.72
2023-02-08T07:37:13.096Z,1.83
2023-02-08T07:39:39.683Z,1.94
2023-02-08T07:42:06.820Z,1.83
2023-02-08T07:44:34.091Z,1.90
2023-02-08T07:47:02.203Z,1.94
2023-02-08T07:49:29.096Z,1.88
2023-02-08T07:51:55.662Z,1.94
2023-02-08T07:54:22.157Z,1.92
2023-02-08T07:56:48.645Z,1.98
2023-02-08T07:59:15.177Z,1.98
2023-02-08T08:01:41.855Z,2.00
2023-02-08T08:04:08.435Z,1.96
2023-02-08T08:06:35.198Z,1.96
2023-02-08T08:09:02.111Z,2.05
2023-02-08T08:11:28.707Z,2.14
2023-02-08T08:13:55.197Z,2.15
2023-02-08T08:16:21.912Z,2.15
2023-02-08T08:18:48.837Z,2.26
2023-02-08T08:21:16.933Z,2.36
2023-02-08T08:23:43.799Z,2.34
2023-02-08T08:26:13.956Z,2.31
2023-02-08T08:28:41.966Z,2.46
2023-02-08T08:31:13.853Z,2.52
2023-02-08T08:33:41.156Z,2.49
2023-02-08T08:36:08.757Z,2.54
2023-02-08T08:38:36.214Z,2.60
2023-02-08T08:41:07.898Z,2.65
2023-02-08T08:43:34.569Z,2.69
2023-02-08T08:46:01.409Z,2.68
2023-02-08T08:48:27.984Z,2.75
2023-02-08T08:50:55.072Z,2.85
2023-02-08T08:53:22.191Z,2.95
2023-02-08T08:55:48.789Z,2.98
2023-02-08T08:58:15.399Z,3.04
2023-02-08T09:00:42.199Z,2.97
2023-02-08T09:03:08.950Z,3.01
2023-02-08T09:05:36.590Z,3.11
2023-02-08T09:08:03.593Z,3.18
2023-02-08T09:10:30.963Z,3.25
2023-02-08T09:12:58.404Z,3.18
2023-02-08T09:15:25.056Z,3.09
2023-02-08T09:17:51.529Z,3.13
2023-02-08T09:20:18.192Z,3.19
2023-02-08T09:22:44.813Z,3.20
2023-02-08T09:25:11.358Z,3.19
2023-02-08T09:27:38.028Z,3.35
2023-02-08T09:30:04.736Z,3.55
2023-02-08T09:32:34.148Z,3.51
2023-02-08T09:35:02.398Z,3.58
2023-02-08T09:37:29.735Z,3.57
2023-02-08T09:39:58.679Z,3.61
2023-02-08T09:42:40.872Z,3.65
2023-02-08T09:45:30.978Z,3.64
2023-02-08T09:48:14.923Z,3.71
2023-02-08T09:50:46.795Z,3.75
2023-02-08T09:53:17.960Z,3.73
2023-02-08T09:55:49.546Z,3.79
2023-02-08T09:58:26.398Z,3.80
2023-02-08T10:00:55.013Z,3.83
2023-02-08T10:03:31.280Z,3.91
2023-02-08T10:05:58.389Z,4.10
2023-02-08T10:08:34.868Z,4.26
2023-02-08T10:11:07.787Z,4.30
2023-02-08T10:13:44.272Z,4.28
2023-02-08T10:16:23.715Z,4.36
2023-02-08T10:19:03.552Z,4.36
2023-02-08T10:22:01.998Z,4.38
2023-02-08T10:24:40.712Z,4.40
2023-02-08T10:27:13.315Z,4.52
2023-02-08T10:30:01.756Z,4.54
2023-02-08T10:33:12.686Z,4.61
2023-02-08T10:35:44.537Z,4.79
2023-02-08T10:38:20.326Z,5.08
2023-02-08T10:41:02.284Z,5.08
2023-02-08T10:43:43.631Z,5.11
2023-02-08T10:46:14.367Z,5.08
2023-02-08T10:49:14.649Z,5.16
2023-02-08T10:51:42.166Z,5.16
2023-02-08T10:54:13.849Z,5.18
2023-02-08T10:56:46.400Z,5.28
2023-02-08T10:59:27.561Z,5.48
2023-02-08T11:01:56.270Z,5.68
2023-02-08T11:04:22.791Z,5.68
2023-02-08T11:06:51.804Z,5.70
2023-02-08T11:09:29.973Z,5.63
2023-02-08T11:11:58.664Z,5.71
2023-02-08T11:14:45.437Z,5.83
2023-02-08T11:17:39.905Z,5.98
2023-02-08T11:20:06.764Z,6.22
2023-02-08T11:22:34.829Z,6.24
2023-02-08T11:25:07.249Z,6.41
2023-02-08T11:27:48.365Z,6.40
2023-02-08T11:30:18.128Z,6.55
2023-02-08T11:32:47.503Z,6.75
2023-02-08T11:35:26.521Z,6.93
2023-02-08T11:37:56.240Z,6.93
2023-02-08T11:40:22.654Z,6.98
2023-02-08T11:42:50.222Z,7.12
2023-02-08T11:45:35.515Z,7.20
2023-02-08T11:48:04.983Z,7.26
2023-02-08T11:50:38.073Z,7.32
2023-02-08T11:53:07.652Z,7.46
2023-02-08T11:55:35.138Z,7.49
2023-02-08T11:58:17.994Z,7.55
2023-02-08T12:00:58.628Z,7.52
2023-02-08T12:03:45.458Z,7.49
2023-02-08T12:06:30.821Z,7.59
2023-02-08T12:09:09.438Z,7.66
2023-02-08T12:11:48.536Z,7.73
2023-02-08T12:14:47.277Z,7.81
2023-02-08T12:17:41.326Z,7.77
2023-02-08T12:20:26.510Z,7.90
2023-02-08T12:23:32.005Z,8.09
2023-02-08T12:26:25.748Z,8.22
2023-02-08T12:29:08.021Z,8.23
2023-02-08T12:31:53.083Z,8.44
2023-02-08T12:34:43.850Z,8.45
2023-02-08T12:37:38.733Z,8.44
2023-02-08T12:40:42.784Z,8.57
2023-02-08T12:43:31.133Z,8.52
2023-02-08T12:46:15.967Z,8.57
2023-02-08T12:48:54.290Z,8.87
2023-02-08T12:51:36.087Z,9.13
2023-02-08T12:54:12.260Z,9.17
2023-02-08T12:56:53.577Z,9.18
2023-02-08T12:59:33.848Z,9.15
2023-02-08T13:02:10.135Z,9.19
2023-02-08T13:04:41.242Z,9.08
2023-02-08T13:07:20.341Z,9.19
2023-02-08T13:10:09.513Z,9.22
2023-02-08T13:12:42.253Z,9.23
2023-02-08T13:15:43.810Z,9.32
2023-02-08T13:18:19.183Z,9.21
2023-02-08T13:21:11.605Z,9.23
2023-02-08T13:23:52.725Z,9.20
2023-02-08T13:26:28.078Z,9.10
2023-02-08T13:29:00.037Z,9.22
2023-02-08T13:31:59.609Z,9.28
2023-02-08T13:34:46.748Z,9.19
2023-02-08T13:37:27.371Z,9.10
2023-02-08T13:40:10.623Z,9.01
2023-02-08T13:42:42.804Z,8.99
2023-02-08T13:45:22.568Z,8.81
2023-02-08T13:47:56.151Z,8.79
2023-02-08T13:50:34.926Z,8.97
2023-02-08T13:53:02.926Z,8.93
2023-02-08T13:55:33.299Z,8.94
2023-02-08T13:58:02.324Z,9.04
2023-02-08T14:00:36.021Z,9.05
2023-02-08T14:03:08.370Z,9.14
2023-02-08T14:05:58.087Z,9.21
2023-02-08T14:08:39.780Z,9.09
2023-02-08T14:11:22.749Z,9.13
2023-02-08T14:13:58.589Z,9.19
2023-02-08T14:16:39.009Z,9.11
2023-02-08T14:19:23.338Z,9.19
2023-02-08T14:22:02.345Z,9.23
2023-02-08T14:24:34.317Z,9.29
2023-02-08T14:27:16.262Z,9.25
2023-02-08T14:29:43.192Z,9.34
2023-02-08T14:32:23.843Z,9.25
2023-02-08T14:35:01.043Z,9.19
2023-02-08T14:37:30.923Z,9.34
2023-02-08T14:40:25.077Z,9.31
2023-02-08T14:42:57.552Z,9.20
2023-02-08T14:45:37.182Z,9.18
2023-02-08T14:48:32.520Z,9.08
2023-02-08T14:51:04.762Z,9.12
2023-02-08T14:53:52.231Z,9.14
2023-02-08T14:56:21.590Z,9.12
2023-02-08T14:59:07.804Z,9.20
2023-02-08T15:01:47.830Z,9.21
2023-02-08T15:04:18.266Z,9.22
2023-02-08T15:06:49.754Z,9.16
2023-02-08T15:09:24.132Z,9.23
2023-02-08T15:12:05.839Z,9.17
2023-02-08T15:14:36.741Z,9.28
2023-02-08T15:17:03.583Z,9.17
2023-02-08T15:19:40.069Z,9.10
2023-02-08T15:22:18.779Z,9.19
2023-02-08T15:24:54.586Z,9.28
2023-02-08T15:27:24.234Z,9.36
2023-02-08T15:29:50.956Z,9.44
2023-02-08T15:32:20.466Z,9.43
2023-02-08T15:35:00.508Z,9.48
2023-02-08T15:37:32.503Z,9.52
2023-02-08T15:40:00.271Z,9.48
2023-02-08T15:42:29.758Z,9.54
2023-02-08T15:44:57.290Z,9.68
2023-02-08T15:47:32.844Z,9.57
2023-02-08T15:50:00.449Z,9.54
2023-02-08T15:52:31.827Z,9.51
2023-02-08T15:55:01.907Z,9.44
2023-02-08T15:57:54.433Z,9.54
2023-02-08T16:00:25.927Z,9.49
2023-02-08T16:02:56.221Z,9.37
2023-02-08T16:05:27.016Z,9.37
2023-02-08T16:07:54.665Z,9.36
2023-02-08T16:10:24.135Z,9.30
2023-02-08T16:12:57.694Z,9.28
2023-02-08T16:15:45.024Z,9.05
2023-02-08T16:18:40.971Z,8.98
2023-02-08T16:21:30.354Z,9.05
2023-02-08T16:23:58.467Z,8.89
2023-02-08T16:26:32.302Z,8.84
2023-02-08T16:29:02.605Z,8.66
2023-02-08T16:31:31.644Z,8.58
2023-02-08T16:34:14.123Z,8.60
2023-02-08T16:36:42.851Z,8.49
2023-02-08T16:39:16.094Z,8.59
2023-02-08T16:42:06.500Z,8.50
2023-02-08T16:44:58.915Z,8.37
2023-02-08T16:47:28.610Z,8.33
2023-02-08T16:49:55.168Z,8.22
2023-02-08T16:52:21.914Z,8.20
2023-02-08T16:54:48.656Z,8.05
2023-02-08T16:57:15.222Z,8.04
2023-02-08T16:59:41.773Z,7.99
2023-02-08T17:02:14.020Z,7.87
2023-02-08T17:04:41.159Z,7.79
2023-02-08T17:07:18.191Z,7.68
2023-02-08T17:09:44.768Z,7.67
2023-02-08T17:12:21.851Z,7.49
2023-02-08T17:14:49.283Z,7.52
2023-02-08T17:17:15.918Z,7.42
2023-02-08T17:19:44.423Z,7.40
2023-02-08T17:22:10.969Z,7.29
2023-02-08T17:24:39.227Z,7.23
2023-02-08T17:27:06.337Z,7.42
2023-02-08T17:29:33.557Z,7.30
2023-02-08T17:32:00.106Z,7.16
2023-02-08T17:34:27.657Z,7.24
2023-02-08T17:36:54.160Z,7.11
2023-02-08T17:39:20.661Z,7.06
2023-02-08T17:41:47.216Z,7.11
2023-02-08T17:44:15.216Z,7.14
2023-02-08T17:46:42.571Z,7.06
2023-02-08T17:49:12.945Z,7.02
2023-02-08T17:51:39.584Z,6.86
2023-02-08T17:54:06.440Z,6.78
2023-02-08T17:56:35.726Z,6.83
2023-02-08T17:59:05.637Z,6.79
2023-02-08T18:01:32.691Z,6.72
2023-02-08T18:04:00.550Z,6.74
2023-02-08T18:06:27.162Z,6.69
2023-02-08T18:08:54.855Z,6.65
2023-02-08T18:11:23.466Z,6.56
2023-02-08T18:13:53.385Z,6.60
2023-02-08T18:16:26.016Z,6.49
2023-02-08T18:18:57.317Z,6.46
2023-02-08T18:21:32.841Z,6.43
2023-02-08T18:24:04.846Z,6.33
2023-02-08T18:26:34.369Z,6.35
2023-02-08T18:29:02.121Z,6.25
2023-02-08T18:31:29.524Z,6.25
2023-02-08T18:33:56.704Z,6.23
2023-02-08T18:36:23.990Z,6.20
2023-02-08T18:38:55.560Z,6.14
2023-02-08T18:41:25.667Z,6.03
2023-02-08T18:43:54.854Z,5.95
2023-02-08T18:46:25.626Z,5.85
2023-02-08T18:48:54.029Z,5.93
2023-02-08T18:51:22.186Z,5.84
2023-02-08T18:53:52.369Z,5.80
2023-02-08T18:56:22.887Z,5.82
2023-02-08T18:58:50.606Z,5.77
2023-02-08T19:01:19.186Z,5.76
2023-02-08T19:03:46.446Z,5.68
2023-02-08T19:06:21.107Z,5.73
2023-02-08T19:08:48.075Z,5.65
2023-02-08T19:11:17.990Z,5.64
2023-02-08T19:13:45.291Z,5.57
2023-02-08T19:16:12.656Z,5.50
2023-02-08T19:18:40.478Z,5.42
2023-02-08T19:21:12.809Z,5.52
2023-02-08T19:23:40.502Z,5.45
2023-02-08T19:26:13.653Z,5.39
2023-02-08T19:28:40.801Z,5.39
2023-02-08T19:31:10.516Z,5.47
2023-02-08T19:33:42.926Z,5.41
2023-02-08T19:36:15.437Z,5.45
2023-02-08T19:38:42.688Z,5.46
2023-02-08T19:41:14.703Z,5.42
2023-02-08T19:43:41.924Z,5.37
2023-02-08T19:46:10.934Z,5.33
2023-02-08T19:48:37.625Z,5.42
2023-02-08T19:51:04.561Z,5.39
2023-02-08T19:53:31.335Z,5.28
2023-02-08T19:55:59.496Z,5.32
2023-02-08T19:58:26.917Z,5.27
2023-02-08T20:00:53.570Z,5.25
2023-02-08T20:03:22.398Z,5.28
2023-02-08T20:05:54.540Z,5.23
2023-02-08T20:08:25.334Z,5.23
2023-02-08T20:10:55.105Z,5.27
2023-02-08T20:13:22.257Z,5.18
2023-02-08T20:15:49.161Z,5.19
2023-02-08T20:18:17.068Z,5.19
2023-02-08T20:20:43.877Z,5.18
2023-02-08T20:23:22.494Z,5.16
2023-02-08T20:25:49.502Z,5.06
2023-02-08T20:28:16.133Z,4.98
2023-02-08T20:30:43.467Z,4.91
2023-02-08T20:33:09.979Z,4.93
2023-02-08T20:35:37.087Z,4.86
2023-02-08T20:38:03.635Z,4.83
2023-02-08T20:40:31.539Z,4.81
2023-02-08T20:42:57.995Z,4.71
2023-02-08T20:45:24.567Z,4.78
2023-02-08T20:47:51.124Z,4.71
2023-02-08T20:50:19.643Z,4.74
2023-02-08T20:52:47.076Z,4.80
2023-02-08T20:55:14.009Z,4.78
2023-02-08T20:57:40.667Z,4.78
2023-02-08T21:00:07.832Z,4.72
2023-02-08T21:02:34.455Z,4.70
2023-02-08T21:05:01.028Z,4.75
2023-02-08T21:07:27.560Z,4.70
2023-02-08T21:09:54.096Z,4.81
2023-02-08T21:12:20.691Z,4.84
2023-02-08T21:14:47.354Z,4.74
2023-02-08T21:17:14.021Z,4.78
2023-02-08T21:19:40.743Z,4.87
2023-02-08T21:22:07.336Z,4.89
2023-02-08T21:24:34.118Z,4.81
2023-02-08T21:27:01.113Z,4.69
2023-02-08T21:29:29.198Z,4.65
2023-02-08T21:31:57.480Z,4.56
2023-02-08T21:34:24.657Z,4.57
2023-02-08T21:36:51.354Z,4.47
2023-02-08T21:39:18.180Z,4.42
2023-02-08T21:41:45.220Z,4.39
2023-02-08T21:44:11.880Z,4.42
2023-02-08T21:46:38.406Z,4.30
2023-02-08T21:49:23.416Z,4.31
2023-02-08T21:52:08.973Z,4.26
2023-02-08T21:54:41.561Z,4.40
2023-02-08T21:57:12.912Z,4.48
2023-02-08T21:59:39.563Z,4.49
2023-02-08T22:02:10.838Z,4.46
2023-02-08T22:04:55.976Z,4.48
2023-02-08T22:07:23.463Z,4.45
2023-02-08T22:09:50.210Z,4.36
2023-02-08T22:12:20.869Z,4.31
2023-02-08T22:14:48.574Z,4.28
2023-02-08T22:17:15.382Z,4.36
2023-02-08T22:19:42.907Z,4.29
2023-02-08T22:22:10.745Z,4.32
2023-02-08T22:24:37.299Z,4.33
2023-02-08T22:27:03.942Z,4.27
2023-02-08T22:29:30.532Z,4.30
2023-02-08T22:31:57.158Z,4.30
2023-02-08T22:34:26.049Z,4.34
2023-02-08T22:36:52.578Z,4.28
2023-02-08T22:39:19.342Z,4.34
2023-02-08T22:41:46.156Z,4.31
2023-02-08T22:44:12.768Z,4.31
2023-02-08T22:46:39.353Z,4.28
2023-02-08T22:49:05.857Z,4.33
2023-02-08T22:51:32.340Z,4.17
2023-02-08T22:53:58.867Z,4.12
2023-02-08T22:56:25.402Z,4.03
2023-02-08T22:58:52.159Z,4.08
2023-02-08T23:01:19.422Z,4.08
2023-02-08T23:03:45.974Z,4.03
2023-02-08T23:06:15.251Z,4.02
2023-02-08T23:08:42.224Z,4.13
2023-02-08T23:11:10.975Z,4.19
2023-02-08T23:13:37.579Z,4.09
2023-02-08T23:16:04.431Z,3.98
2023-02-08T23:18:31.021Z,3.88
2023-02-08T23:20:57.651Z,3.87
2023-02-08T23:23:24.184Z,3.78
2023-02-08T23:25:50.681Z,3.76
2023-02-08T23:28:17.353Z,3.77
2023-02-08T23:30:45.301Z,3.90
2023-02-08T23:33:11.981Z,3.83
2023-02-08T23:35:41.809Z,3.89
2023-02-08T23:38:09.397Z,3.90
2023-02-08T23:40:36.076Z,3.88
2023-02-08T23:43:02.748Z,3.88
2023-02-08T23:45:29.322Z,3.96
2023-02-08T23:47:55.819Z,3.95
2023-02-08T23:50:22.645Z,3.98
2023-02-08T23:52:49.436Z,4.00
2023-02-08T23:55:15.912Z,4.01
2023-02-08T23:57:42.517Z,4.11
